Whitewater, Colorado
Current Conditions -  °F | °C
As of 3:53 PM on Tuesday 27 Jan 2015 (Local Time) from KGJT Reporting Station
Broken Clouds Broken Clouds  
Wind Chill: 51°   Ceiling: 9000
Heat Index: 51°   Visibility: 10mi
Dew Point: 27°   Wind: 8mph
Humidity: 39%   Direction: 310°NW
Pressure: 30.24"   Gusts: NA
Location:  38.99°N, 108.45°W
Report Text: KGJT 272253Z 31007KT 10SM FEW070 BKN090 11/M03 A3024 RMK AO2 SLP232 T01061028
Loading
Personal Weather Stations






























Interactive Weather Map New forecast layout! Learn more

10-Day Weather Forecast

Advertisements
Track Severe Weather on mobile